createdAt,value
2018-08-17T00:06:32.553Z,20.30
2018-08-17T00:09:01.725Z,20.20
2018-08-17T00:11:31.303Z,20.20
2018-08-17T00:14:00.106Z,20.30
2018-08-17T00:16:29.295Z,20.40
2018-08-17T00:25:14.042Z,19.90
2018-08-17T00:30:28.099Z,19.80
2018-08-17T00:33:05.179Z,19.80
2018-08-17T00:35:34.972Z,19.20
2018-08-17T00:38:03.670Z,18.50
2018-08-17T00:40:33.928Z,18.30
2018-08-17T00:43:02.887Z,18.30
2018-08-17T00:45:31.625Z,18.10
2018-08-17T00:48:00.650Z,18.00
2018-08-17T00:50:31.809Z,17.80
2018-08-17T00:53:06.041Z,18.00
2018-08-17T00:55:42.185Z,18.30
2018-08-17T00:58:12.292Z,18.70
2018-08-17T01:00:42.524Z,19.10
2018-08-17T01:03:12.635Z,19.10
2018-08-17T01:05:41.997Z,19.50
2018-08-17T01:08:10.754Z,19.70
2018-08-17T01:10:40.193Z,20.10
2018-08-17T01:13:13.771Z,20.10
2018-08-17T01:15:42.729Z,19.90
2018-08-17T01:18:12.708Z,20.10
2018-08-17T01:20:42.511Z,19.70
2018-08-17T01:23:16.666Z,19.40
2018-08-17T01:26:08.286Z,19.10
2018-08-17T01:28:38.820Z,19.10
2018-08-17T01:31:10.782Z,18.90
2018-08-17T01:33:42.480Z,18.30
2018-08-17T01:36:11.841Z,18.30
2018-08-17T01:38:41.181Z,18.20
2018-08-17T01:41:09.896Z,18.20
2018-08-17T01:43:39.631Z,18.20
2018-08-17T01:46:08.652Z,18.30
2018-08-17T01:48:39.045Z,18.50
2018-08-17T01:51:09.404Z,18.40
2018-08-17T01:53:38.929Z,18.40
2018-08-17T01:56:07.827Z,18.30
2018-08-17T01:58:42.181Z,18.10
2018-08-17T02:01:13.987Z,18.10
2018-08-17T02:03:44.165Z,18.00
2018-08-17T02:06:14.962Z,18.00
2018-08-17T02:08:45.167Z,17.90
2018-08-17T02:11:17.278Z,17.90
2018-08-17T02:13:56.820Z,18.10
2018-08-17T02:16:27.144Z,18.10
2018-08-17T02:18:57.676Z,18.10
2018-08-17T02:21:27.278Z,18.10
2018-08-17T02:23:57.212Z,18.00
2018-08-17T02:26:26.634Z,18.00
2018-08-17T02:28:56.405Z,18.00
2018-08-17T02:31:27.960Z,18.10
2018-08-17T02:34:02.683Z,18.10
2018-08-17T02:36:35.403Z,18.10
2018-08-17T02:39:09.167Z,18.00
2018-08-17T02:41:39.081Z,17.90
2018-08-17T02:44:09.103Z,18.00
2018-08-17T02:46:41.060Z,18.10
2018-08-17T02:49:10.768Z,18.10
2018-08-17T02:51:40.169Z,18.20
2018-08-17T02:54:09.574Z,18.30
2018-08-17T02:56:41.733Z,18.40
2018-08-17T02:59:11.143Z,18.40
2018-08-17T03:01:40.733Z,18.30
2018-08-17T03:04:11.869Z,18.40
2018-08-17T03:06:43.752Z,18.40
2018-08-17T03:09:16.532Z,18.50
2018-08-17T03:11:45.522Z,18.40
2018-08-17T03:14:14.883Z,18.40
2018-08-17T03:16:49.445Z,18.50
2018-08-17T03:19:19.359Z,18.50
2018-08-17T03:21:49.070Z,18.60
2018-08-17T03:24:23.390Z,18.50
2018-08-17T03:26:52.477Z,18.70
2018-08-17T03:29:21.715Z,18.70
2018-08-17T03:31:51.345Z,18.70
2018-08-17T03:34:20.278Z,18.80
2018-08-17T03:36:48.980Z,19.00
2018-08-17T03:39:18.098Z,18.90
2018-08-17T03:41:48.075Z,19.00
2018-08-17T03:44:16.930Z,18.90
2018-08-17T03:46:46.788Z,18.80
2018-08-17T03:49:16.890Z,19.00
2018-08-17T03:51:46.841Z,18.60
2018-08-17T03:54:18.413Z,18.50
2018-08-17T03:56:53.434Z,18.50
2018-08-17T03:59:22.074Z,18.50
2018-08-17T04:01:53.326Z,18.50
2018-08-17T04:04:21.987Z,18.30
2018-08-17T04:06:51.163Z,18.30
2018-08-17T04:09:20.911Z,18.20
2018-08-17T04:11:52.782Z,18.00
2018-08-17T04:17:15.950Z,18.10
2018-08-17T04:19:47.808Z,18.10
2018-08-17T04:22:19.665Z,17.90
2018-08-17T04:24:52.442Z,18.00
2018-08-17T04:27:24.714Z,18.00
2018-08-17T04:29:55.143Z,18.20
2018-08-17T04:32:25.260Z,18.50
2018-08-17T04:34:56.404Z,18.10
2018-08-17T04:37:33.588Z,18.10
2018-08-17T04:40:04.630Z,18.20
2018-08-17T04:42:47.039Z,18.30
2018-08-17T04:45:22.169Z,18.50
2018-08-17T04:47:53.218Z,18.20
2018-08-17T04:50:22.985Z,18.30
2018-08-17T04:52:56.019Z,18.50
2018-08-17T04:55:28.406Z,18.50
2018-08-17T04:58:06.076Z,18.40
2018-08-17T05:00:36.222Z,18.40
2018-08-17T05:03:09.282Z,18.60
2018-08-17T05:05:38.092Z,18.70
2018-08-17T05:08:06.870Z,18.70
2018-08-17T05:11:13.120Z,18.70
2018-08-17T05:13:45.904Z,18.70
2018-08-17T05:16:19.303Z,18.60
2018-08-17T05:19:00.398Z,18.30
2018-08-17T05:24:39.447Z,18.10
2018-08-17T05:27:12.845Z,18.40
2018-08-17T05:29:42.938Z,18.30
2018-08-17T05:32:20.121Z,18.20
2018-08-17T05:34:56.587Z,18.30
2018-08-17T05:37:27.936Z,18.20
2018-08-17T05:40:11.466Z,18.00
2018-08-17T05:52:23.409Z,18.20
2018-08-17T05:54:52.925Z,17.70
2018-08-17T05:57:22.749Z,18.10
2018-08-17T06:00:14.043Z,18.40
2018-08-17T06:02:52.018Z,18.70
2018-08-17T06:05:23.760Z,19.00
2018-08-17T06:07:53.772Z,18.70
2018-08-17T06:10:24.667Z,18.90
2018-08-17T06:12:53.972Z,18.60
2018-08-17T06:15:23.523Z,18.70
2018-08-17T06:17:54.438Z,18.90
2018-08-17T06:20:29.837Z,18.90
2018-08-17T06:22:59.150Z,19.20
2018-08-17T06:28:16.946Z,18.90
2018-08-17T06:31:04.954Z,18.90
2018-08-17T06:33:42.201Z,19.20
2018-08-17T06:36:12.234Z,18.90
2018-08-17T06:38:44.368Z,18.60
2018-08-17T06:41:23.464Z,18.30
2018-08-17T06:43:55.702Z,18.20
2018-08-17T06:46:26.095Z,18.00
2018-08-17T06:48:55.836Z,17.70
2018-08-17T06:51:26.028Z,17.90
2018-08-17T06:54:04.031Z,18.10
2018-08-17T06:56:56.153Z,17.90
2018-08-17T06:59:27.176Z,18.10
2018-08-17T07:01:57.085Z,18.00
2018-08-17T07:04:28.473Z,18.00
2018-08-17T07:07:22.657Z,18.10
2018-08-17T07:10:05.065Z,17.90
2018-08-17T07:12:34.854Z,17.80
2018-08-17T07:15:05.307Z,17.70
2018-08-17T07:17:36.167Z,17.80
2018-08-17T07:20:10.255Z,17.90
2018-08-17T07:22:43.959Z,17.90
2018-08-17T07:25:13.873Z,18.00
2018-08-17T07:27:44.434Z,17.90
2018-08-17T07:30:15.957Z,17.80
2018-08-17T07:32:47.924Z,17.70
2018-08-17T07:35:17.489Z,17.90
2018-08-17T07:37:47.063Z,18.00
2018-08-17T07:40:18.487Z,18.00
2018-08-17T07:42:51.237Z,18.00
2018-08-17T07:45:29.786Z,18.20
2018-08-17T07:48:02.758Z,18.60
2018-08-17T07:50:32.213Z,18.50
2018-08-17T07:53:01.111Z,18.30
2018-08-17T07:55:30.121Z,18.10
2018-08-17T07:58:06.707Z,18.30
2018-08-17T08:00:36.024Z,18.70
2018-08-17T08:03:05.854Z,18.10
2018-08-17T08:05:37.359Z,17.90
2018-08-17T08:08:32.249Z,17.90
2018-08-17T08:11:31.534Z,18.10
2018-08-17T08:27:10.397Z,18.30
2018-08-17T08:35:03.654Z,18.30
2018-08-17T08:40:50.446Z,17.50
2018-08-17T08:50:26.758Z,17.60
2018-08-17T08:54:06.409Z,17.40
2018-08-17T08:56:36.054Z,17.70
2018-08-17T09:15:04.956Z,18.00
2018-08-17T09:18:48.104Z,17.50
2018-08-17T09:42:08.415Z,17.50
2018-08-17T09:44:41.165Z,17.70
2018-08-17T09:47:20.091Z,17.80
2018-08-17T09:49:56.125Z,17.90
2018-08-17T09:52:25.104Z,18.10
2018-08-17T10:06:45.885Z,18.50
2018-08-17T10:09:50.249Z,18.30
2018-08-17T10:27:59.200Z,18.70
2018-08-17T10:34:27.806Z,19.30
2018-08-17T10:37:07.755Z,19.20
2018-08-17T10:45:28.587Z,19.20
2018-08-17T10:48:03.895Z,19.30
2018-08-17T10:50:36.919Z,19.20
2018-08-17T10:53:14.206Z,19.20
2018-08-17T10:56:00.915Z,19.30
2018-08-17T10:58:37.178Z,19.30
2018-08-17T11:01:09.642Z,19.00
2018-08-17T11:03:44.482Z,19.00
2018-08-17T11:10:48.437Z,18.60
2018-08-17T11:14:08.106Z,18.60
2018-08-17T11:20:26.307Z,18.50
2018-08-17T11:37:53.197Z,17.90
2018-08-17T11:43:11.145Z,17.80
2018-08-17T11:48:37.983Z,17.80
2018-08-17T11:51:21.479Z,18.00
2018-08-17T11:55:09.792Z,18.10
2018-08-17T12:00:57.024Z,18.40
2018-08-17T12:03:27.152Z,18.30
2018-08-17T12:06:10.725Z,18.70
2018-08-17T12:21:51.994Z,19.00
2018-08-17T12:24:29.316Z,19.10
2018-08-17T12:27:04.809Z,18.70
2018-08-17T12:35:56.749Z,19.10
2018-08-17T12:43:47.889Z,18.80
2018-08-17T12:52:56.857Z,19.50
2018-08-17T13:02:47.398Z,20.10
2018-08-17T13:10:28.066Z,19.80
2018-08-17T13:16:05.609Z,21.30
2018-08-17T13:29:14.070Z,20.90
2018-08-17T13:49:42.996Z,21.50
2018-08-17T13:56:37.296Z,21.90
2018-08-17T13:59:12.643Z,21.60
2018-08-17T14:07:08.600Z,21.40
2018-08-17T14:15:30.220Z,21.30
2018-08-17T14:27:32.792Z,21.00
2018-08-17T14:30:04.446Z,21.10
2018-08-17T14:38:51.178Z,21.50
2018-08-17T14:41:58.672Z,21.80
2018-08-17T14:50:53.612Z,21.80
2018-08-17T14:53:24.231Z,22.00
2018-08-17T14:55:56.101Z,21.80
2018-08-17T14:58:30.256Z,21.40
2018-08-17T15:01:05.861Z,21.50
2018-08-17T15:09:41.396Z,21.50
2018-08-17T16:09:13.148Z,22.40
2018-08-17T16:30:11.559Z,23.00
2018-08-17T17:15:21.783Z,23.30
2018-08-17T17:27:59.550Z,23.00
2018-08-17T17:40:01.360Z,22.90
2018-08-17T17:56:44.685Z,22.70
2018-08-17T17:59:16.712Z,22.80
2018-08-17T18:01:57.002Z,22.40
2018-08-17T18:04:49.180Z,22.40
2018-08-17T18:51:03.664Z,21.50
2018-08-17T19:04:01.088Z,20.50
2018-08-17T19:06:36.425Z,20.80
2018-08-17T19:09:16.855Z,20.90
2018-08-17T19:15:04.844Z,20.90
2018-08-17T19:20:15.810Z,21.00
2018-08-17T19:28:51.405Z,20.70
2018-08-17T19:31:21.945Z,20.50
2018-08-17T19:34:19.900Z,20.30
2018-08-17T19:36:52.840Z,20.00
2018-08-17T19:39:27.322Z,20.50
2018-08-17T19:41:56.437Z,20.70
2018-08-17T19:44:25.272Z,20.70
2018-08-17T19:46:54.234Z,20.40
2018-08-17T19:49:23.073Z,20.20
2018-08-17T19:51:59.473Z,19.80
2018-08-17T19:54:28.809Z,20.00
2018-08-17T19:56:58.587Z,20.40
2018-08-17T19:59:29.089Z,20.50
2018-08-17T20:01:59.821Z,20.00
2018-08-17T20:04:41.366Z,19.50
2018-08-17T20:07:17.057Z,19.00
2018-08-17T20:10:07.703Z,19.00
2018-08-17T20:12:39.064Z,19.00
2018-08-17T20:15:09.981Z,19.00
2018-08-17T20:17:39.036Z,19.40
2018-08-17T20:20:11.377Z,20.00
2018-08-17T20:25:21.271Z,19.40
2018-08-17T20:27:55.993Z,19.20
2018-08-17T20:39:42.352Z,19.40
2018-08-17T20:42:15.342Z,18.40
2018-08-17T20:44:45.025Z,18.10
2018-08-17T20:47:15.345Z,18.50
2018-08-17T20:49:44.239Z,18.50
2018-08-17T20:52:13.098Z,19.00
2018-08-17T20:54:42.451Z,18.90
2018-08-17T20:57:11.405Z,18.70
2018-08-17T20:59:40.714Z,19.20
2018-08-17T21:02:12.393Z,18.90
2018-08-17T21:14:00.797Z,18.30
2018-08-17T21:16:36.758Z,17.70
2018-08-17T21:19:06.122Z,17.70
2018-08-17T21:21:35.571Z,17.70
2018-08-17T21:24:04.459Z,17.80
2018-08-17T21:26:38.538Z,17.80
2018-08-17T21:29:07.416Z,17.90
2018-08-17T21:31:36.474Z,17.70
2018-08-17T21:34:05.330Z,17.90
2018-08-17T21:36:37.052Z,18.00
2018-08-17T21:41:23.243Z,18.10
2018-08-17T21:47:13.164Z,18.50
2018-08-17T21:49:55.193Z,18.20
2018-08-17T21:52:27.667Z,17.90
2018-08-17T21:55:00.351Z,17.60
2018-08-17T21:57:31.577Z,17.40
2018-08-17T22:00:00.589Z,17.20
2018-08-17T22:02:29.637Z,17.30
2018-08-17T22:05:00.752Z,17.50
2018-08-17T22:07:34.276Z,17.60
2018-08-17T22:10:03.748Z,17.50
2018-08-17T22:12:40.513Z,17.40
2018-08-17T22:18:41.235Z,17.50
2018-08-17T22:21:13.703Z,17.50
2018-08-17T22:23:47.441Z,17.40
2018-08-17T22:26:22.743Z,17.50
2018-08-17T22:28:57.676Z,17.80
2018-08-17T22:31:40.722Z,17.80
2018-08-17T22:34:16.054Z,18.00
2018-08-17T22:36:45.052Z,18.20
2018-08-17T22:39:13.893Z,18.30
2018-08-17T22:41:43.753Z,18.20
2018-08-17T22:44:18.077Z,18.20
2018-08-17T22:46:57.645Z,18.40
2018-08-17T22:49:27.644Z,17.90
2018-08-17T22:51:56.825Z,17.30
2018-08-17T22:54:28.170Z,17.40
2018-08-17T22:57:00.031Z,17.40
2018-08-17T23:04:40.212Z,17.40
2018-08-17T23:10:28.049Z,17.30
2018-08-17T23:12:59.827Z,16.90
2018-08-17T23:15:33.331Z,16.50
2018-08-17T23:18:18.162Z,16.30
2018-08-17T23:20:47.361Z,16.10
2018-08-17T23:23:16.560Z,16.20
2018-08-17T23:25:45.618Z,16.30
2018-08-17T23:28:25.794Z,16.20
2018-08-17T23:30:54.874Z,16.40
2018-08-17T23:37:43.708Z,16.80
2018-08-17T23:40:15.977Z,17.20
2018-08-17T23:46:07.514Z,16.70
2018-08-17T23:48:42.344Z,16.70
